sensor_id;sensor_type;location;lat;lon;timestamp;P1;durP1;ratioP1;P2;durP2;ratioP2
74959;SDS011;63518;49.572;1.106;2022-11-20T00:01:29;5.72;;;1.30;;
74959;SDS011;63518;49.572;1.106;2022-11-20T00:03:57;5.07;;;1.80;;
74959;SDS011;63518;49.572;1.106;2022-11-20T00:06:25;4.35;;;1.33;;
74959;SDS011;63518;49.572;1.106;2022-11-20T00:08:55;6.10;;;1.80;;
74959;SDS011;63518;49.572;1.106;2022-11-20T00:11:24;4.85;;;1.55;;
74959;SDS011;63518;49.572;1.106;2022-11-20T00:13:57;3.67;;;1.55;;
74959;SDS011;63518;49.572;1.106;2022-11-20T00:16:33;6.15;;;1.70;;
74959;SDS011;63518;49.572;1.106;2022-11-20T00:19:01;5.88;;;1.52;;
74959;SDS011;63518;49.572;1.106;2022-11-20T00:21:29;5.25;;;1.52;;
74959;SDS011;63518;49.572;1.106;2022-11-20T00:23:57;4.20;;;1.30;;
74959;SDS011;63518;49.572;1.106;2022-11-20T00:26:25;7.53;;;2.08;;
74959;SDS011;63518;49.572;1.106;2022-11-20T00:28:55;5.25;;;1.67;;
74959;SDS011;63518;49.572;1.106;2022-11-20T00:31:24;5.00;;;1.35;;
74959;SDS011;63518;49.572;1.106;2022-11-20T00:34:00;6.30;;;1.38;;
74959;SDS011;63518;49.572;1.106;2022-11-20T00:36:28;4.30;;;1.35;;
74959;SDS011;63518;49.572;1.106;2022-11-20T00:38:58;6.07;;;1.90;;
74959;SDS011;63518;49.572;1.106;2022-11-20T00:41:26;5.13;;;1.02;;
74959;SDS011;63518;49.572;1.106;2022-11-20T00:43:57;6.00;;;1.30;;
74959;SDS011;63518;49.572;1.106;2022-11-20T00:46:25;4.10;;;1.58;;
74959;SDS011;63518;49.572;1.106;2022-11-20T00:48:57;7.13;;;1.90;;
74959;SDS011;63518;49.572;1.106;2022-11-20T00:51:25;4.72;;;1.35;;
74959;SDS011;63518;49.572;1.106;2022-11-20T00:53:58;3.45;;;0.80;;
74959;SDS011;63518;49.572;1.106;2022-11-20T00:56:30;5.78;;;1.27;;
74959;SDS011;63518;49.572;1.106;2022-11-20T00:58:59;3.17;;;1.02;;
74959;SDS011;63518;49.572;1.106;2022-11-20T01:01:28;5.47;;;1.60;;
74959;SDS011;63518;49.572;1.106;2022-11-20T01:04:00;5.57;;;1.33;;
74959;SDS011;63518;49.572;1.106;2022-11-20T01:06:34;3.58;;;1.02;;
74959;SDS011;63518;49.572;1.106;2022-11-20T01:09:13;6.30;;;1.30;;
74959;SDS011;63518;49.572;1.106;2022-11-20T01:11:43;2.75;;;0.88;;
74959;SDS011;63518;49.572;1.106;2022-11-20T01:14:22;3.50;;;1.30;;
74959;SDS011;63518;49.572;1.106;2022-11-20T01:16:50;3.80;;;1.00;;
74959;SDS011;63518;49.572;1.106;2022-11-20T01:19:20;5.88;;;1.02;;
74959;SDS011;63518;49.572;1.106;2022-11-20T01:21:51;3.83;;;1.17;;
74959;SDS011;63518;49.572;1.106;2022-11-20T01:24:23;3.95;;;1.00;;
74959;SDS011;63518;49.572;1.106;2022-11-20T01:26:51;4.88;;;1.05;;
74959;SDS011;63518;49.572;1.106;2022-11-20T01:29:21;4.00;;;1.40;;
74959;SDS011;63518;49.572;1.106;2022-11-20T01:31:54;3.20;;;1.02;;
74959;SDS011;63518;49.572;1.106;2022-11-20T01:34:22;6.47;;;1.15;;
74959;SDS011;63518;49.572;1.106;2022-11-20T01:36:56;3.25;;;0.98;;
74959;SDS011;63518;49.572;1.106;2022-11-20T01:39:25;4.78;;;0.90;;
74959;SDS011;63518;49.572;1.106;2022-11-20T01:41:54;1.52;;;0.30;;
74959;SDS011;63518;49.572;1.106;2022-11-20T01:47:30;3.97;;;1.25;;
74959;SDS011;63518;49.572;1.106;2022-11-20T01:50:16;4.55;;;1.27;;
74959;SDS011;63518;49.572;1.106;2022-11-20T01:52:54;3.90;;;1.33;;
74959;SDS011;63518;49.572;1.106;2022-11-20T01:55:26;3.97;;;0.90;;
74959;SDS011;63518;49.572;1.106;2022-11-20T01:58:02;4.00;;;1.27;;
74959;SDS011;63518;49.572;1.106;2022-11-20T02:00:33;4.70;;;1.15;;
74959;SDS011;63518;49.572;1.106;2022-11-20T02:03:02;3.13;;;0.77;;
74959;SDS011;63518;49.572;1.106;2022-11-20T02:05:35;5.15;;;1.42;;
74959;SDS011;63518;49.572;1.106;2022-11-20T02:08:06;4.15;;;1.02;;
74959;SDS011;63518;49.572;1.106;2022-11-20T02:10:35;5.00;;;1.25;;
74959;SDS011;63518;49.572;1.106;2022-11-20T02:13:03;2.63;;;0.77;;
74959;SDS011;63518;49.572;1.106;2022-11-20T02:15:51;6.13;;;2.00;;
74959;SDS011;63518;49.572;1.106;2022-11-20T02:18:26;6.45;;;1.20;;
74959;SDS011;63518;49.572;1.106;2022-11-20T02:20:57;9.80;;;1.77;;
74959;SDS011;63518;49.572;1.106;2022-11-20T02:23:36;4.20;;;1.25;;
74959;SDS011;63518;49.572;1.106;2022-11-20T02:26:07;5.63;;;1.60;;
74959;SDS011;63518;49.572;1.106;2022-11-20T02:28:47;6.63;;;1.55;;
74959;SDS011;63518;49.572;1.106;2022-11-20T02:31:15;7.30;;;1.70;;
74959;SDS011;63518;49.572;1.106;2022-11-20T02:33:54;4.82;;;1.48;;
74959;SDS011;63518;49.572;1.106;2022-11-20T02:36:26;7.53;;;1.25;;
74959;SDS011;63518;49.572;1.106;2022-11-20T02:38:57;6.13;;;1.20;;
74959;SDS011;63518;49.572;1.106;2022-11-20T02:41:33;4.03;;;1.10;;
74959;SDS011;63518;49.572;1.106;2022-11-20T02:44:05;4.55;;;1.17;;
74959;SDS011;63518;49.572;1.106;2022-11-20T02:46:34;4.72;;;1.02;;
74959;SDS011;63518;49.572;1.106;2022-11-20T02:49:04;4.35;;;1.27;;
74959;SDS011;63518;49.572;1.106;2022-11-20T02:51:33;5.00;;;1.13;;
74959;SDS011;63518;49.572;1.106;2022-11-20T02:54:03;4.03;;;1.15;;
74959;SDS011;63518;49.572;1.106;2022-11-20T02:56:31;7.43;;;1.80;;
74959;SDS011;63518;49.572;1.106;2022-11-20T02:59:04;6.53;;;1.48;;
74959;SDS011;63518;49.572;1.106;2022-11-20T03:01:32;4.72;;;1.38;;
74959;SDS011;63518;49.572;1.106;2022-11-20T03:04:03;6.55;;;1.33;;
74959;SDS011;63518;49.572;1.106;2022-11-20T03:06:34;4.05;;;1.00;;
74959;SDS011;63518;49.572;1.106;2022-11-20T03:09:04;8.07;;;1.58;;
74959;SDS011;63518;49.572;1.106;2022-11-20T03:11:35;3.10;;;0.75;;
74959;SDS011;63518;49.572;1.106;2022-11-20T03:14:04;2.90;;;0.80;;
74959;SDS011;63518;49.572;1.106;2022-11-20T03:16:32;6.40;;;1.38;;
74959;SDS011;63518;49.572;1.106;2022-11-20T03:19:04;5.70;;;1.38;;
74959;SDS011;63518;49.572;1.106;2022-11-20T03:21:35;7.63;;;1.60;;
74959;SDS011;63518;49.572;1.106;2022-11-20T03:24:07;6.95;;;1.63;;
74959;SDS011;63518;49.572;1.106;2022-11-20T03:26:39;6.88;;;1.80;;
74959;SDS011;63518;49.572;1.106;2022-11-20T03:29:07;5.72;;;1.88;;
74959;SDS011;63518;49.572;1.106;2022-11-20T03:31:36;6.18;;;1.60;;
74959;SDS011;63518;49.572;1.106;2022-11-20T03:34:09;4.75;;;1.20;;
74959;SDS011;63518;49.572;1.106;2022-11-20T03:36:43;5.20;;;1.40;;
74959;SDS011;63518;49.572;1.106;2022-11-20T03:39:11;5.20;;;1.35;;
74959;SDS011;63518;49.572;1.106;2022-11-20T03:41:41;4.00;;;1.27;;
74959;SDS011;63518;49.572;1.106;2022-11-20T03:44:10;5.20;;;1.25;;
74959;SDS011;63518;49.572;1.106;2022-11-20T03:46:39;4.95;;;1.25;;
74959;SDS011;63518;49.572;1.106;2022-11-20T03:49:12;4.88;;;1.27;;
74959;SDS011;63518;49.572;1.106;2022-11-20T03:51:40;8.38;;;1.40;;
74959;SDS011;63518;49.572;1.106;2022-11-20T03:54:09;5.05;;;1.55;;
74959;SDS011;63518;49.572;1.106;2022-11-20T03:56:39;3.47;;;0.93;;
74959;SDS011;63518;49.572;1.106;2022-11-20T03:59:13;2.45;;;0.65;;
74959;SDS011;63518;49.572;1.106;2022-11-20T04:01:43;7.95;;;1.50;;
74959;SDS011;63518;49.572;1.106;2022-11-20T04:04:17;3.58;;;0.90;;
74959;SDS011;63518;49.572;1.106;2022-11-20T04:06:46;3.58;;;1.13;;
74959;SDS011;63518;49.572;1.106;2022-11-20T04:09:17;3.92;;;1.45;;
74959;SDS011;63518;49.572;1.106;2022-11-20T04:11:47;3.78;;;1.00;;
74959;SDS011;63518;49.572;1.106;2022-11-20T04:14:16;3.97;;;0.93;;
74959;SDS011;63518;49.572;1.106;2022-11-20T04:16:50;5.80;;;1.38;;
74959;SDS011;63518;49.572;1.106;2022-11-20T04:19:27;2.75;;;0.90;;
74959;SDS011;63518;49.572;1.106;2022-11-20T04:21:55;3.55;;;1.02;;
74959;SDS011;63518;49.572;1.106;2022-11-20T04:24:23;2.97;;;0.95;;
74959;SDS011;63518;49.572;1.106;2022-11-20T04:26:52;3.63;;;0.77;;
74959;SDS011;63518;49.572;1.106;2022-11-20T04:29:20;3.47;;;0.82;;
74959;SDS011;63518;49.572;1.106;2022-11-20T04:31:50;6.00;;;1.23;;
74959;SDS011;63518;49.572;1.106;2022-11-20T04:34:19;4.97;;;1.30;;
74959;SDS011;63518;49.572;1.106;2022-11-20T04:36:47;5.20;;;1.63;;
74959;SDS011;63518;49.572;1.106;2022-11-20T04:39:18;4.63;;;1.65;;
74959;SDS011;63518;49.572;1.106;2022-11-20T04:41:55;4.97;;;1.73;;
74959;SDS011;63518;49.572;1.106;2022-11-20T04:44:43;5.40;;;1.27;;
74959;SDS011;63518;49.572;1.106;2022-11-20T04:47:11;3.38;;;1.23;;
74959;SDS011;63518;49.572;1.106;2022-11-20T04:49:39;3.05;;;1.10;;
74959;SDS011;63518;49.572;1.106;2022-11-20T04:52:10;3.92;;;0.88;;
74959;SDS011;63518;49.572;1.106;2022-11-20T04:54:38;6.40;;;1.35;;
74959;SDS011;63518;49.572;1.106;2022-11-20T04:57:05;3.50;;;1.23;;
74959;SDS011;63518;49.572;1.106;2022-11-20T04:59:41;2.58;;;0.85;;
74959;SDS011;63518;49.572;1.106;2022-11-20T05:02:09;2.58;;;0.80;;
74959;SDS011;63518;49.572;1.106;2022-11-20T05:04:38;7.05;;;1.77;;
74959;SDS011;63518;49.572;1.106;2022-11-20T05:07:06;4.90;;;1.35;;
74959;SDS011;63518;49.572;1.106;2022-11-20T05:09:40;5.00;;;1.45;;
74959;SDS011;63518;49.572;1.106;2022-11-20T05:12:08;5.10;;;1.00;;
74959;SDS011;63518;49.572;1.106;2022-11-20T05:14:38;2.03;;;0.77;;
74959;SDS011;63518;49.572;1.106;2022-11-20T05:17:19;5.93;;;1.20;;
74959;SDS011;63518;49.572;1.106;2022-11-20T05:19:48;3.20;;;1.00;;
74959;SDS011;63518;49.572;1.106;2022-11-20T05:22:35;3.38;;;1.10;;
74959;SDS011;63518;49.572;1.106;2022-11-20T05:25:16;4.20;;;1.13;;
74959;SDS011;63518;49.572;1.106;2022-11-20T05:30:12;3.58;;;0.90;;
74959;SDS011;63518;49.572;1.106;2022-11-20T05:32:57;4.22;;;1.42;;
74959;SDS011;63518;49.572;1.106;2022-11-20T05:35:33;3.72;;;1.20;;
74959;SDS011;63518;49.572;1.106;2022-11-20T05:38:23;5.57;;;1.63;;
74959;SDS011;63518;49.572;1.106;2022-11-20T05:40:51;5.22;;;1.33;;
74959;SDS011;63518;49.572;1.106;2022-11-20T05:43:35;4.63;;;1.15;;
74959;SDS011;63518;49.572;1.106;2022-11-20T05:46:04;3.22;;;0.90;;
74959;SDS011;63518;49.572;1.106;2022-11-20T05:48:35;2.78;;;0.88;;
74959;SDS011;63518;49.572;1.106;2022-11-20T05:51:07;6.10;;;1.20;;
74959;SDS011;63518;49.572;1.106;2022-11-20T05:53:38;3.92;;;1.17;;
74959;SDS011;63518;49.572;1.106;2022-11-20T05:56:28;2.13;;;0.47;;
74959;SDS011;63518;49.572;1.106;2022-11-20T05:58:59;1.25;;;0.30;;
74959;SDS011;63518;49.572;1.106;2022-11-20T06:01:28;1.83;;;0.55;;
74959;SDS011;63518;49.572;1.106;2022-11-20T06:03:56;1.50;;;0.55;;
74959;SDS011;63518;49.572;1.106;2022-11-20T06:06:25;2.03;;;0.90;;
74959;SDS011;63518;49.572;1.106;2022-11-20T06:08:54;7.43;;;0.85;;
74959;SDS011;63518;49.572;1.106;2022-11-20T06:11:23;4.15;;;1.02;;
74959;SDS011;63518;49.572;1.106;2022-11-20T06:13:53;2.65;;;0.40;;
74959;SDS011;63518;49.572;1.106;2022-11-20T06:16:23;4.50;;;1.83;;
74959;SDS011;63518;49.572;1.106;2022-11-20T06:18:52;5.50;;;1.60;;
74959;SDS011;63518;49.572;1.106;2022-11-20T06:21:21;3.15;;;1.05;;
74959;SDS011;63518;49.572;1.106;2022-11-20T06:23:52;3.35;;;1.10;;
74959;SDS011;63518;49.572;1.106;2022-11-20T06:26:25;2.35;;;0.82;;
74959;SDS011;63518;49.572;1.106;2022-11-20T06:28:57;1.85;;;0.43;;
74959;SDS011;63518;49.572;1.106;2022-11-20T06:31:29;2.80;;;0.80;;
74959;SDS011;63518;49.572;1.106;2022-11-20T06:34:06;2.75;;;0.80;;
74959;SDS011;63518;49.572;1.106;2022-11-20T06:36:37;1.63;;;0.68;;
74959;SDS011;63518;49.572;1.106;2022-11-20T06:39:08;1.58;;;0.47;;
74959;SDS011;63518;49.572;1.106;2022-11-20T06:41:37;2.13;;;0.90;;
74959;SDS011;63518;49.572;1.106;2022-11-20T06:44:06;1.60;;;0.68;;
74959;SDS011;63518;49.572;1.106;2022-11-20T06:46:34;2.25;;;1.02;;
74959;SDS011;63518;49.572;1.106;2022-11-20T06:49:05;0.68;;;0.25;;
74959;SDS011;63518;49.572;1.106;2022-11-20T06:51:34;3.70;;;1.23;;
74959;SDS011;63518;49.572;1.106;2022-11-20T06:54:02;3.63;;;0.82;;
74959;SDS011;63518;49.572;1.106;2022-11-20T06:56:31;4.85;;;1.27;;
74959;SDS011;63518;49.572;1.106;2022-11-20T06:59:03;2.33;;;0.77;;
74959;SDS011;63518;49.572;1.106;2022-11-20T07:01:32;1.48;;;0.60;;
74959;SDS011;63518;49.572;1.106;2022-11-20T07:04:03;3.40;;;1.52;;
74959;SDS011;63518;49.572;1.106;2022-11-20T07:06:31;2.47;;;0.98;;
74959;SDS011;63518;49.572;1.106;2022-11-20T07:09:00;3.67;;;1.23;;
74959;SDS011;63518;49.572;1.106;2022-11-20T07:11:30;7.63;;;1.40;;
74959;SDS011;63518;49.572;1.106;2022-11-20T07:14:00;9.02;;;2.50;;
74959;SDS011;63518;49.572;1.106;2022-11-20T07:16:29;6.05;;;1.92;;
74959;SDS011;63518;49.572;1.106;2022-11-20T07:18:57;1.80;;;0.75;;
74959;SDS011;63518;49.572;1.106;2022-11-20T07:21:26;4.15;;;0.65;;
74959;SDS011;63518;49.572;1.106;2022-11-20T07:23:55;2.65;;;0.90;;
74959;SDS011;63518;49.572;1.106;2022-11-20T07:26:26;4.47;;;0.77;;
74959;SDS011;63518;49.572;1.106;2022-11-20T07:28:57;3.80;;;1.23;;
74959;SDS011;63518;49.572;1.106;2022-11-20T07:31:26;0.57;;;0.20;;
74959;SDS011;63518;49.572;1.106;2022-11-20T07:33:57;0.55;;;0.20;;
74959;SDS011;63518;49.572;1.106;2022-11-20T07:36:28;1.65;;;0.40;;
74959;SDS011;63518;49.572;1.106;2022-11-20T07:38:58;2.67;;;0.98;;
74959;SDS011;63518;49.572;1.106;2022-11-20T07:41:26;4.22;;;1.33;;
74959;SDS011;63518;49.572;1.106;2022-11-20T07:43:55;1.38;;;0.43;;
74959;SDS011;63518;49.572;1.106;2022-11-20T07:46:23;0.30;;;0.10;;
74959;SDS011;63518;49.572;1.106;2022-11-20T07:48:53;2.15;;;0.73;;
74959;SDS011;63518;49.572;1.106;2022-11-20T07:51:21;3.70;;;0.63;;
74959;SDS011;63518;49.572;1.106;2022-11-20T07:53:51;2.55;;;0.73;;
74959;SDS011;63518;49.572;1.106;2022-11-20T07:56:19;3.10;;;0.88;;
74959;SDS011;63518;49.572;1.106;2022-11-20T07:58:51;1.60;;;0.50;;
74959;SDS011;63518;49.572;1.106;2022-11-20T08:01:19;3.75;;;0.95;;
74959;SDS011;63518;49.572;1.106;2022-11-20T08:03:47;2.55;;;0.68;;
74959;SDS011;63518;49.572;1.106;2022-11-20T08:06:15;2.00;;;0.88;;
74959;SDS011;63518;49.572;1.106;2022-11-20T08:08:45;7.07;;;1.98;;
74959;SDS011;63518;49.572;1.106;2022-11-20T08:11:16;5.15;;;2.00;;
74959;SDS011;63518;49.572;1.106;2022-11-20T08:14:04;2.55;;;0.85;;
74959;SDS011;63518;49.572;1.106;2022-11-20T08:16:45;2.38;;;0.90;;
74959;SDS011;63518;49.572;1.106;2022-11-20T08:19:16;1.67;;;0.57;;
74959;SDS011;63518;49.572;1.106;2022-11-20T08:21:48;10.50;;;0.63;;
74959;SDS011;63518;49.572;1.106;2022-11-20T08:24:17;1.45;;;0.40;;
74959;SDS011;63518;49.572;1.106;2022-11-20T08:26:48;4.65;;;1.30;;
74959;SDS011;63518;49.572;1.106;2022-11-20T08:29:16;4.72;;;0.73;;
74959;SDS011;63518;49.572;1.106;2022-11-20T08:31:45;1.83;;;0.50;;
74959;SDS011;63518;49.572;1.106;2022-11-20T08:34:12;6.25;;;1.17;;
74959;SDS011;63518;49.572;1.106;2022-11-20T08:36:46;3.40;;;0.85;;
74959;SDS011;63518;49.572;1.106;2022-11-20T08:39:14;2.80;;;0.63;;
74959;SDS011;63518;49.572;1.106;2022-11-20T08:41:42;1.48;;;0.52;;
74959;SDS011;63518;49.572;1.106;2022-11-20T08:44:13;6.55;;;0.70;;
74959;SDS011;63518;49.572;1.106;2022-11-20T08:46:42;3.63;;;1.48;;
74959;SDS011;63518;49.572;1.106;2022-11-20T08:49:21;5.13;;;2.22;;
74959;SDS011;63518;49.572;1.106;2022-11-20T08:51:53;3.92;;;0.73;;
74959;SDS011;63518;49.572;1.106;2022-11-20T08:54:52;2.97;;;1.08;;
74959;SDS011;63518;49.572;1.106;2022-11-20T08:57:25;3.42;;;1.17;;
74959;SDS011;63518;49.572;1.106;2022-11-20T08:59:55;2.08;;;0.70;;
74959;SDS011;63518;49.572;1.106;2022-11-20T09:02:40;1.13;;;0.38;;
74959;SDS011;63518;49.572;1.106;2022-11-20T09:05:09;3.92;;;0.73;;
74959;SDS011;63518;49.572;1.106;2022-11-20T09:07:39;2.00;;;0.68;;
74959;SDS011;63518;49.572;1.106;2022-11-20T09:10:09;2.95;;;0.95;;
74959;SDS011;63518;49.572;1.106;2022-11-20T09:12:51;6.68;;;1.02;;
74959;SDS011;63518;49.572;1.106;2022-11-20T09:15:24;1.67;;;0.57;;
74959;SDS011;63518;49.572;1.106;2022-11-20T09:17:57;4.00;;;1.58;;
74959;SDS011;63518;49.572;1.106;2022-11-20T09:20:30;1.40;;;0.40;;
74959;SDS011;63518;49.572;1.106;2022-11-20T09:22:58;2.75;;;0.88;;
74959;SDS011;63518;49.572;1.106;2022-11-20T09:25:27;1.85;;;0.57;;
74959;SDS011;63518;49.572;1.106;2022-11-20T09:27:57;3.80;;;1.17;;
74959;SDS011;63518;49.572;1.106;2022-11-20T09:30:26;3.83;;;1.30;;
74959;SDS011;63518;49.572;1.106;2022-11-20T09:32:56;1.90;;;0.65;;
74959;SDS011;63518;49.572;1.106;2022-11-20T09:35:24;3.08;;;1.00;;
74959;SDS011;63518;49.572;1.106;2022-11-20T09:37:52;4.90;;;1.58;;
74959;SDS011;63518;49.572;1.106;2022-11-20T09:40:21;5.90;;;1.60;;
74959;SDS011;63518;49.572;1.106;2022-11-20T09:43:09;5.32;;;1.50;;
74959;SDS011;63518;49.572;1.106;2022-11-20T09:45:53;6.88;;;2.60;;
74959;SDS011;63518;49.572;1.106;2022-11-20T09:51:26;6.85;;;2.88;;
74959;SDS011;63518;49.572;1.106;2022-11-20T09:54:18;5.93;;;3.40;;
74959;SDS011;63518;49.572;1.106;2022-11-20T09:56:56;9.18;;;4.70;;
74959;SDS011;63518;49.572;1.106;2022-11-20T09:59:50;3.58;;;1.13;;
74959;SDS011;63518;49.572;1.106;2022-11-20T10:02:35;9.30;;;4.60;;
74959;SDS011;63518;49.572;1.106;2022-11-20T10:10:56;18.45;;;9.07;;
74959;SDS011;63518;49.572;1.106;2022-11-20T10:22:35;8.85;;;5.75;;
74959;SDS011;63518;49.572;1.106;2022-11-20T10:25:19;5.10;;;2.22;;
74959;SDS011;63518;49.572;1.106;2022-11-20T10:30:22;5.82;;;2.05;;
74959;SDS011;63518;49.572;1.106;2022-11-20T10:32:54;8.02;;;4.13;;
74959;SDS011;63518;49.572;1.106;2022-11-20T10:38:29;10.95;;;6.25;;
74959;SDS011;63518;49.572;1.106;2022-11-20T10:41:05;11.50;;;5.78;;
74959;SDS011;63518;49.572;1.106;2022-11-20T10:47:04;6.45;;;2.65;;
74959;SDS011;63518;49.572;1.106;2022-11-20T10:49:33;23.35;;;12.43;;
74959;SDS011;63518;49.572;1.106;2022-11-20T10:52:25;39.85;;;18.38;;
74959;SDS011;63518;49.572;1.106;2022-11-20T10:57:52;46.53;;;16.48;;
74959;SDS011;63518;49.572;1.106;2022-11-20T11:00:26;10.20;;;4.18;;
74959;SDS011;63518;49.572;1.106;2022-11-20T11:05:33;12.15;;;5.88;;
74959;SDS011;63518;49.572;1.106;2022-11-20T11:08:12;8.57;;;4.65;;
74959;SDS011;63518;49.572;1.106;2022-11-20T11:10:53;6.05;;;2.08;;
74959;SDS011;63518;49.572;1.106;2022-11-20T11:13:29;4.55;;;1.85;;
74959;SDS011;63518;49.572;1.106;2022-11-20T11:15:57;5.43;;;2.08;;
74959;SDS011;63518;49.572;1.106;2022-11-20T11:21:02;5.13;;;1.67;;
74959;SDS011;63518;49.572;1.106;2022-11-20T11:23:35;4.47;;;2.58;;
74959;SDS011;63518;49.572;1.106;2022-11-20T11:26:07;3.35;;;0.98;;
74959;SDS011;63518;49.572;1.106;2022-11-20T11:28:59;4.68;;;1.60;;
74959;SDS011;63518;49.572;1.106;2022-11-20T11:31:33;5.93;;;1.92;;
74959;SDS011;63518;49.572;1.106;2022-11-20T11:34:04;6.57;;;2.03;;
74959;SDS011;63518;49.572;1.106;2022-11-20T11:36:33;4.03;;;1.48;;
74959;SDS011;63518;49.572;1.106;2022-11-20T11:39:03;3.00;;;1.10;;
74959;SDS011;63518;49.572;1.106;2022-11-20T11:41:33;5.93;;;2.60;;
74959;SDS011;63518;49.572;1.106;2022-11-20T11:44:27;5.07;;;1.90;;
74959;SDS011;63518;49.572;1.106;2022-11-20T11:47:26;4.68;;;1.50;;
74959;SDS011;63518;49.572;1.106;2022-11-20T11:58:34;5.97;;;2.63;;
74959;SDS011;63518;49.572;1.106;2022-11-20T12:03:58;4.95;;;1.60;;
74959;SDS011;63518;49.572;1.106;2022-11-20T12:06:31;7.80;;;2.13;;
74959;SDS011;63518;49.572;1.106;2022-11-20T12:09:05;3.75;;;1.15;;
74959;SDS011;63518;49.572;1.106;2022-11-20T12:11:37;8.45;;;1.92;;
74959;SDS011;63518;49.572;1.106;2022-11-20T12:16:51;10.00;;;1.42;;
74959;SDS011;63518;49.572;1.106;2022-11-20T12:19:19;6.28;;;1.33;;
74959;SDS011;63518;49.572;1.106;2022-11-20T12:42:52;9.27;;;1.30;;
74959;SDS011;63518;49.572;1.106;2022-11-20T12:54:51;6.80;;;1.33;;
74959;SDS011;63518;49.572;1.106;2022-11-20T12:57:41;5.28;;;1.20;;
74959;SDS011;63518;49.572;1.106;2022-11-20T13:00:14;10.90;;;2.00;;
74959;SDS011;63518;49.572;1.106;2022-11-20T13:16:48;12.60;;;2.10;;
74959;SDS011;63518;49.572;1.106;2022-11-20T13:19:28;7.32;;;1.50;;
74959;SDS011;63518;49.572;1.106;2022-11-20T13:21:58;10.35;;;1.75;;
74959;SDS011;63518;49.572;1.106;2022-11-20T13:24:34;13.85;;;2.08;;
74959;SDS011;63518;49.572;1.106;2022-11-20T13:32:55;12.85;;;2.05;;
74959;SDS011;63518;49.572;1.106;2022-11-20T13:38:09;8.80;;;1.33;;
74959;SDS011;63518;49.572;1.106;2022-11-20T13:40:53;15.35;;;1.88;;
74959;SDS011;63518;49.572;1.106;2022-11-20T13:43:59;16.60;;;2.10;;
74959;SDS011;63518;49.572;1.106;2022-11-20T13:46:36;7.00;;;1.05;;
74959;SDS011;63518;49.572;1.106;2022-11-20T14:01:30;5.57;;;1.40;;
74959;SDS011;63518;49.572;1.106;2022-11-20T14:03:59;9.20;;;1.48;;
74959;SDS011;63518;49.572;1.106;2022-11-20T14:06:38;3.35;;;0.75;;
74959;SDS011;63518;49.572;1.106;2022-11-20T14:09:11;8.55;;;1.65;;
74959;SDS011;63518;49.572;1.106;2022-11-20T14:11:45;6.03;;;1.67;;
74959;SDS011;63518;49.572;1.106;2022-11-20T14:14:17;8.80;;;1.55;;
74959;SDS011;63518;49.572;1.106;2022-11-20T14:16:48;6.55;;;1.25;;
74959;SDS011;63518;49.572;1.106;2022-11-20T14:21:48;7.72;;;1.88;;
74959;SDS011;63518;49.572;1.106;2022-11-20T14:24:19;7.25;;;1.23;;
74959;SDS011;63518;49.572;1.106;2022-11-20T14:26:49;5.15;;;1.23;;
74959;SDS011;63518;49.572;1.106;2022-11-20T14:31:52;10.20;;;1.33;;
74959;SDS011;63518;49.572;1.106;2022-11-20T14:34:21;3.05;;;0.82;;
74959;SDS011;63518;49.572;1.106;2022-11-20T14:36:57;2.90;;;0.68;;
74959;SDS011;63518;49.572;1.106;2022-11-20T14:39:53;8.38;;;1.70;;
74959;SDS011;63518;49.572;1.106;2022-11-20T14:42:25;6.13;;;0.77;;
74959;SDS011;63518;49.572;1.106;2022-11-20T14:44:55;8.85;;;1.48;;
74959;SDS011;63518;49.572;1.106;2022-11-20T14:47:25;12.05;;;1.85;;
74959;SDS011;63518;49.572;1.106;2022-11-20T14:49:56;10.68;;;1.38;;
74959;SDS011;63518;49.572;1.106;2022-11-20T14:52:27;8.13;;;1.35;;
74959;SDS011;63518;49.572;1.106;2022-11-20T14:54:58;7.45;;;1.38;;
74959;SDS011;63518;49.572;1.106;2022-11-20T14:57:35;9.25;;;1.45;;
74959;SDS011;63518;49.572;1.106;2022-11-20T15:02:50;3.72;;;0.60;;
74959;SDS011;63518;49.572;1.106;2022-11-20T15:05:20;5.55;;;0.98;;
74959;SDS011;63518;49.572;1.106;2022-11-20T15:08:05;6.57;;;1.00;;
74959;SDS011;63518;49.572;1.106;2022-11-20T15:10:35;2.17;;;0.40;;
74959;SDS011;63518;49.572;1.106;2022-11-20T15:13:11;5.05;;;1.60;;
74959;SDS011;63518;49.572;1.106;2022-11-20T15:18:25;5.53;;;0.75;;
74959;SDS011;63518;49.572;1.106;2022-11-20T15:21:00;6.03;;;1.05;;
74959;SDS011;63518;49.572;1.106;2022-11-20T15:23:38;12.38;;;1.30;;
74959;SDS011;63518;49.572;1.106;2022-11-20T15:26:06;10.43;;;1.60;;
74959;SDS011;63518;49.572;1.106;2022-11-20T15:28:43;4.25;;;0.80;;
74959;SDS011;63518;49.572;1.106;2022-11-20T15:31:14;7.68;;;0.90;;
74959;SDS011;63518;49.572;1.106;2022-11-20T15:33:49;7.90;;;0.80;;
74959;SDS011;63518;49.572;1.106;2022-11-20T15:36:16;4.10;;;0.82;;
74959;SDS011;63518;49.572;1.106;2022-11-20T15:38:45;6.13;;;1.10;;
74959;SDS011;63518;49.572;1.106;2022-11-20T15:41:14;6.68;;;1.27;;
74959;SDS011;63518;49.572;1.106;2022-11-20T15:43:41;9.32;;;1.30;;
74959;SDS011;63518;49.572;1.106;2022-11-20T15:46:10;9.07;;;1.23;;
74959;SDS011;63518;49.572;1.106;2022-11-20T15:48:44;4.70;;;1.00;;
74959;SDS011;63518;49.572;1.106;2022-11-20T15:54:01;4.95;;;0.80;;
74959;SDS011;63518;49.572;1.106;2022-11-20T15:56:37;1.58;;;0.40;;
74959;SDS011;63518;49.572;1.106;2022-11-20T15:59:06;3.20;;;0.77;;
74959;SDS011;63518;49.572;1.106;2022-11-20T16:01:34;6.43;;;1.10;;
74959;SDS011;63518;49.572;1.106;2022-11-20T16:04:05;7.93;;;1.15;;
74959;SDS011;63518;49.572;1.106;2022-11-20T16:06:36;6.57;;;0.90;;
74959;SDS011;63518;49.572;1.106;2022-11-20T16:09:03;7.18;;;1.17;;
74959;SDS011;63518;49.572;1.106;2022-11-20T16:11:30;12.60;;;1.38;;
74959;SDS011;63518;49.572;1.106;2022-11-20T16:14:05;9.27;;;3.53;;
74959;SDS011;63518;49.572;1.106;2022-11-20T16:16:56;8.27;;;2.28;;
74959;SDS011;63518;49.572;1.106;2022-11-20T16:19:23;8.00;;;2.55;;
74959;SDS011;63518;49.572;1.106;2022-11-20T16:21:50;7.47;;;1.30;;
74959;SDS011;63518;49.572;1.106;2022-11-20T16:24:18;9.18;;;2.65;;
74959;SDS011;63518;49.572;1.106;2022-11-20T16:26:46;4.50;;;1.50;;
74959;SDS011;63518;49.572;1.106;2022-11-20T16:29:13;6.88;;;1.80;;
74959;SDS011;63518;49.572;1.106;2022-11-20T16:31:41;8.77;;;2.60;;
74959;SDS011;63518;49.572;1.106;2022-11-20T16:34:09;5.47;;;1.42;;
74959;SDS011;63518;49.572;1.106;2022-11-20T16:36:40;9.18;;;2.00;;
74959;SDS011;63518;49.572;1.106;2022-11-20T16:39:08;7.97;;;1.27;;
74959;SDS011;63518;49.572;1.106;2022-11-20T16:41:35;5.55;;;1.13;;
74959;SDS011;63518;49.572;1.106;2022-11-20T16:44:06;4.90;;;1.30;;
74959;SDS011;63518;49.572;1.106;2022-11-20T16:46:34;13.63;;;2.05;;
74959;SDS011;63518;49.572;1.106;2022-11-20T16:49:05;5.55;;;0.95;;
74959;SDS011;63518;49.572;1.106;2022-11-20T16:51:37;7.72;;;1.40;;
74959;SDS011;63518;49.572;1.106;2022-11-20T16:54:09;4.05;;;1.00;;
74959;SDS011;63518;49.572;1.106;2022-11-20T16:56:43;6.80;;;1.02;;
74959;SDS011;63518;49.572;1.106;2022-11-20T16:59:13;7.00;;;0.95;;
74959;SDS011;63518;49.572;1.106;2022-11-20T17:01:43;9.23;;;1.30;;
74959;SDS011;63518;49.572;1.106;2022-11-20T17:04:30;6.32;;;0.60;;
74959;SDS011;63518;49.572;1.106;2022-11-20T17:07:20;3.03;;;0.73;;
74959;SDS011;63518;49.572;1.106;2022-11-20T17:09:56;4.90;;;0.68;;
74959;SDS011;63518;49.572;1.106;2022-11-20T17:12:24;5.45;;;0.70;;
74959;SDS011;63518;49.572;1.106;2022-11-20T17:14:54;5.30;;;0.80;;
74959;SDS011;63518;49.572;1.106;2022-11-20T17:17:36;3.97;;;0.63;;
74959;SDS011;63518;49.572;1.106;2022-11-20T17:20:05;5.05;;;0.65;;
74959;SDS011;63518;49.572;1.106;2022-11-20T17:22:38;5.28;;;0.57;;
74959;SDS011;63518;49.572;1.106;2022-11-20T17:25:06;7.78;;;0.60;;
74959;SDS011;63518;49.572;1.106;2022-11-20T17:27:42;9.73;;;1.15;;
74959;SDS011;63518;49.572;1.106;2022-11-20T17:30:14;5.20;;;1.35;;